sensor_id;sensor_type;location;lat;lon;timestamp;temperature;humidity
20068;DHT22;10194;50.824;7.134;2023-01-26T00:01:20;0.30;99.90
20068;DHT22;10194;50.824;7.134;2023-01-26T00:03:48;0.30;99.90
20068;DHT22;10194;50.824;7.134;2023-01-26T00:06:16;0.20;99.90
20068;DHT22;10194;50.824;7.134;2023-01-26T00:08:45;0.30;99.90
20068;DHT22;10194;50.824;7.134;2023-01-26T00:11:18;0.20;99.90
20068;DHT22;10194;50.824;7.134;2023-01-26T00:13:49;0.20;99.90
20068;DHT22;10194;50.824;7.134;2023-01-26T00:16:15;0.20;99.90
20068;DHT22;10194;50.824;7.134;2023-01-26T00:18:42;0.20;99.90
20068;DHT22;10194;50.824;7.134;2023-01-26T00:21:12;0.20;99.90
20068;DHT22;10194;50.824;7.134;2023-01-26T00:23:39;0.10;99.90
20068;DHT22;10194;50.824;7.134;2023-01-26T00:26:06;0.20;99.90
20068;DHT22;10194;50.824;7.134;2023-01-26T00:28:33;0.20;99.90
20068;DHT22;10194;50.824;7.134;2023-01-26T00:31:08;0.10;99.90
20068;DHT22;10194;50.824;7.134;2023-01-26T00:33:36;0.10;99.90
20068;DHT22;10194;50.824;7.134;2023-01-26T00:36:02;0.10;99.90
20068;DHT22;10194;50.824;7.134;2023-01-26T00:38:28;0.10;99.90
20068;DHT22;10194;50.824;7.134;2023-01-26T00:40:54;0.10;99.90
20068;DHT22;10194;50.824;7.134;2023-01-26T00:43:20;0.10;99.90
20068;DHT22;10194;50.824;7.134;2023-01-26T00:45:47;0.00;99.90
20068;DHT22;10194;50.824;7.134;2023-01-26T00:48:13;0.10;99.90
20068;DHT22;10194;50.824;7.134;2023-01-26T00:50:39;0.00;99.90
20068;DHT22;10194;50.824;7.134;2023-01-26T00:53:05;-0.10;99.90
20068;DHT22;10194;50.824;7.134;2023-01-26T00:55:31;0.00;99.90
20068;DHT22;10194;50.824;7.134;2023-01-26T00:58:01;-0.10;99.90
20068;DHT22;10194;50.824;7.134;2023-01-26T01:00:29;-0.10;99.90
20068;DHT22;10194;50.824;7.134;2023-01-26T01:02:57;-0.10;99.90
20068;DHT22;10194;50.824;7.134;2023-01-26T01:05:24;-0.10;99.90
20068;DHT22;10194;50.824;7.134;2023-01-26T01:07:51;0.00;99.90
20068;DHT22;10194;50.824;7.134;2023-01-26T01:10:17;0.00;99.90
20068;DHT22;10194;50.824;7.134;2023-01-26T01:12:43;0.00;99.90
20068;DHT22;10194;50.824;7.134;2023-01-26T01:15:09;0.00;99.90
20068;DHT22;10194;50.824;7.134;2023-01-26T01:17:35;0.00;99.90
20068;DHT22;10194;50.824;7.134;2023-01-26T01:20:07;0.00;99.90
20068;DHT22;10194;50.824;7.134;2023-01-26T01:22:35;0.00;99.90
20068;DHT22;10194;50.824;7.134;2023-01-26T01:25:01;0.00;99.90
20068;DHT22;10194;50.824;7.134;2023-01-26T01:27:27;0.00;99.90
20068;DHT22;10194;50.824;7.134;2023-01-26T01:29:53;0.00;99.90
20068;DHT22;10194;50.824;7.134;2023-01-26T01:32:19;0.00;99.90
20068;DHT22;10194;50.824;7.134;2023-01-26T01:34:46;0.00;99.90
20068;DHT22;10194;50.824;7.134;2023-01-26T01:37:13;0.00;99.90
20068;DHT22;10194;50.824;7.134;2023-01-26T01:39:39;0.00;99.90
20068;DHT22;10194;50.824;7.134;2023-01-26T01:42:05;-0.10;99.90
20068;DHT22;10194;50.824;7.134;2023-01-26T01:44:34;-0.10;99.90
20068;DHT22;10194;50.824;7.134;2023-01-26T01:47:28;-0.10;99.90
20068;DHT22;10194;50.824;7.134;2023-01-26T01:49:54;-0.10;99.90
20068;DHT22;10194;50.824;7.134;2023-01-26T01:52:23;-0.10;99.90
20068;DHT22;10194;50.824;7.134;2023-01-26T01:55:08;0.00;99.90
20068;DHT22;10194;50.824;7.134;2023-01-26T01:57:37;0.00;99.90
20068;DHT22;10194;50.824;7.134;2023-01-26T02:00:17;0.00;99.90
20068;DHT22;10194;50.824;7.134;2023-01-26T02:02:48;0.00;99.90
20068;DHT22;10194;50.824;7.134;2023-01-26T02:05:42;0.00;99.90
20068;DHT22;10194;50.824;7.134;2023-01-26T02:08:13;-0.10;99.90
20068;DHT22;10194;50.824;7.134;2023-01-26T02:10:43;0.00;99.90
20068;DHT22;10194;50.824;7.134;2023-01-26T02:13:11;0.00;99.90
20068;DHT22;10194;50.824;7.134;2023-01-26T02:15:37;0.00;99.90
20068;DHT22;10194;50.824;7.134;2023-01-26T02:18:04;-0.10;99.90
20068;DHT22;10194;50.824;7.134;2023-01-26T02:20:44;-0.10;99.90
20068;DHT22;10194;50.824;7.134;2023-01-26T02:28:36;-0.10;99.90
20068;DHT22;10194;50.824;7.134;2023-01-26T02:31:02;-0.10;99.90
20068;DHT22;10194;50.824;7.134;2023-01-26T02:33:31;-0.10;99.90
20068;DHT22;10194;50.824;7.134;2023-01-26T02:35:58;-0.10;99.90
20068;DHT22;10194;50.824;7.134;2023-01-26T02:38:30;-0.10;99.90
20068;DHT22;10194;50.824;7.134;2023-01-26T02:41:13;-0.10;99.90
20068;DHT22;10194;50.824;7.134;2023-01-26T02:44:04;-0.20;99.90
20068;DHT22;10194;50.824;7.134;2023-01-26T02:46:32;-0.20;99.90
20068;DHT22;10194;50.824;7.134;2023-01-26T02:48:58;-0.20;99.90
20068;DHT22;10194;50.824;7.134;2023-01-26T02:51:42;-0.20;99.90
20068;DHT22;10194;50.824;7.134;2023-01-26T02:54:08;-0.20;99.90
20068;DHT22;10194;50.824;7.134;2023-01-26T02:56:54;-0.30;99.90
20068;DHT22;10194;50.824;7.134;2023-01-26T02:59:19;-0.20;99.90
20068;DHT22;10194;50.824;7.134;2023-01-26T03:01:48;-0.20;99.90
20068;DHT22;10194;50.824;7.134;2023-01-26T03:04:15;-0.20;99.90
20068;DHT22;10194;50.824;7.134;2023-01-26T03:06:41;-0.20;99.90
20068;DHT22;10194;50.824;7.134;2023-01-26T03:09:06;-0.20;99.90
20068;DHT22;10194;50.824;7.134;2023-01-26T03:11:32;-0.20;99.90
20068;DHT22;10194;50.824;7.134;2023-01-26T03:14:12;-0.20;99.90
20068;DHT22;10194;50.824;7.134;2023-01-26T03:16:39;-0.20;99.90
20068;DHT22;10194;50.824;7.134;2023-01-26T03:19:08;-0.20;99.90
20068;DHT22;10194;50.824;7.134;2023-01-26T03:21:54;-0.20;99.90
20068;DHT22;10194;50.824;7.134;2023-01-26T03:24:38;-0.10;99.90
20068;DHT22;10194;50.824;7.134;2023-01-26T03:27:23;-0.10;99.90
20068;DHT22;10194;50.824;7.134;2023-01-26T03:29:52;-0.10;99.90
20068;DHT22;10194;50.824;7.134;2023-01-26T03:32:22;0.00;99.90
20068;DHT22;10194;50.824;7.134;2023-01-26T03:34:48;0.00;99.90
20068;DHT22;10194;50.824;7.134;2023-01-26T03:37:14;0.10;99.90
20068;DHT22;10194;50.824;7.134;2023-01-26T03:39:40;0.20;99.90
20068;DHT22;10194;50.824;7.134;2023-01-26T03:42:24;0.10;99.90
20068;DHT22;10194;50.824;7.134;2023-01-26T03:45:08;0.00;99.90
20068;DHT22;10194;50.824;7.134;2023-01-26T03:48:01;0.00;99.90
20068;DHT22;10194;50.824;7.134;2023-01-26T03:50:46;0.00;99.90
20068;DHT22;10194;50.824;7.134;2023-01-26T03:53:30;0.00;99.90
20068;DHT22;10194;50.824;7.134;2023-01-26T03:56:14;-0.10;99.90
20068;DHT22;10194;50.824;7.134;2023-01-26T03:58:50;0.00;99.90
20068;DHT22;10194;50.824;7.134;2023-01-26T04:01:18;0.00;99.90
20068;DHT22;10194;50.824;7.134;2023-01-26T04:03:49;0.00;99.90
20068;DHT22;10194;50.824;7.134;2023-01-26T04:06:34;0.00;99.90
20068;DHT22;10194;50.824;7.134;2023-01-26T04:09:19;-0.10;99.90
20068;DHT22;10194;50.824;7.134;2023-01-26T04:11:45;0.00;99.90
20068;DHT22;10194;50.824;7.134;2023-01-26T04:14:13;0.00;99.90
20068;DHT22;10194;50.824;7.134;2023-01-26T04:16:59;0.00;99.90
20068;DHT22;10194;50.824;7.134;2023-01-26T04:19:45;-0.10;99.90
20068;DHT22;10194;50.824;7.134;2023-01-26T04:22:37;-0.10;99.90
20068;DHT22;10194;50.824;7.134;2023-01-26T04:25:09;-0.10;99.90
20068;DHT22;10194;50.824;7.134;2023-01-26T04:27:37;-0.10;99.90
20068;DHT22;10194;50.824;7.134;2023-01-26T04:30:04;-0.10;99.90
20068;DHT22;10194;50.824;7.134;2023-01-26T04:32:30;-0.10;99.90
20068;DHT22;10194;50.824;7.134;2023-01-26T04:34:56;-0.10;99.90
20068;DHT22;10194;50.824;7.134;2023-01-26T04:37:22;-0.10;99.90
20068;DHT22;10194;50.824;7.134;2023-01-26T04:39:48;-0.20;99.90
20068;DHT22;10194;50.824;7.134;2023-01-26T04:42:13;-0.20;99.90
20068;DHT22;10194;50.824;7.134;2023-01-26T04:44:39;-0.20;99.90
20068;DHT22;10194;50.824;7.134;2023-01-26T04:47:05;-0.20;99.90
20068;DHT22;10194;50.824;7.134;2023-01-26T04:49:30;-0.20;99.90
20068;DHT22;10194;50.824;7.134;2023-01-26T04:51:56;-0.20;99.90
20068;DHT22;10194;50.824;7.134;2023-01-26T04:54:22;-0.10;99.90
20068;DHT22;10194;50.824;7.134;2023-01-26T04:56:48;-0.10;99.90
20068;DHT22;10194;50.824;7.134;2023-01-26T04:59:13;-0.10;99.90
20068;DHT22;10194;50.824;7.134;2023-01-26T05:01:40;-0.10;99.90
20068;DHT22;10194;50.824;7.134;2023-01-26T05:04:06;-0.10;99.90
20068;DHT22;10194;50.824;7.134;2023-01-26T05:06:32;-0.20;99.90
20068;DHT22;10194;50.824;7.134;2023-01-26T05:08:58;-0.20;99.90
20068;DHT22;10194;50.824;7.134;2023-01-26T05:11:24;-0.20;99.90
20068;DHT22;10194;50.824;7.134;2023-01-26T05:13:50;-0.20;99.90
20068;DHT22;10194;50.824;7.134;2023-01-26T05:16:15;-0.30;99.90
20068;DHT22;10194;50.824;7.134;2023-01-26T05:18:42;-0.30;99.90
20068;DHT22;10194;50.824;7.134;2023-01-26T05:21:09;-0.30;99.90
20068;DHT22;10194;50.824;7.134;2023-01-26T05:23:35;-0.30;99.90
20068;DHT22;10194;50.824;7.134;2023-01-26T05:26:02;-0.30;99.90
20068;DHT22;10194;50.824;7.134;2023-01-26T05:28:28;-0.30;99.90
20068;DHT22;10194;50.824;7.134;2023-01-26T05:30:54;-0.30;99.90
20068;DHT22;10194;50.824;7.134;2023-01-26T05:33:19;-0.30;99.90
20068;DHT22;10194;50.824;7.134;2023-01-26T05:35:50;-0.40;99.90
20068;DHT22;10194;50.824;7.134;2023-01-26T05:38:17;-0.40;99.90
20068;DHT22;10194;50.824;7.134;2023-01-26T05:40:43;-0.40;99.90
20068;DHT22;10194;50.824;7.134;2023-01-26T05:43:10;-0.40;99.90
20068;DHT22;10194;50.824;7.134;2023-01-26T05:45:37;-0.40;99.90
20068;DHT22;10194;50.824;7.134;2023-01-26T05:48:04;-0.40;99.90
20068;DHT22;10194;50.824;7.134;2023-01-26T05:50:30;-0.40;99.90
20068;DHT22;10194;50.824;7.134;2023-01-26T05:52:56;-0.40;99.90
20068;DHT22;10194;50.824;7.134;2023-01-26T05:55:23;-0.40;99.90
20068;DHT22;10194;50.824;7.134;2023-01-26T05:57:49;-0.50;99.90
20068;DHT22;10194;50.824;7.134;2023-01-26T06:00:15;-0.40;99.90
20068;DHT22;10194;50.824;7.134;2023-01-26T06:02:41;-0.40;99.90
20068;DHT22;10194;50.824;7.134;2023-01-26T06:05:07;-0.40;99.90
20068;DHT22;10194;50.824;7.134;2023-01-26T06:07:33;-0.40;99.90
20068;DHT22;10194;50.824;7.134;2023-01-26T06:09:59;-0.40;99.90
20068;DHT22;10194;50.824;7.134;2023-01-26T06:12:25;-0.30;99.90
20068;DHT22;10194;50.824;7.134;2023-01-26T06:14:56;-0.40;99.90
20068;DHT22;10194;50.824;7.134;2023-01-26T06:17:22;-0.30;99.90
20068;DHT22;10194;50.824;7.134;2023-01-26T06:19:48;-0.30;99.90
20068;DHT22;10194;50.824;7.134;2023-01-26T06:22:14;-0.30;99.90
20068;DHT22;10194;50.824;7.134;2023-01-26T06:24:40;-0.30;99.90
20068;DHT22;10194;50.824;7.134;2023-01-26T06:27:08;-0.20;99.90
20068;DHT22;10194;50.824;7.134;2023-01-26T06:29:37;-0.20;99.90
20068;DHT22;10194;50.824;7.134;2023-01-26T06:32:03;-0.30;99.90
20068;DHT22;10194;50.824;7.134;2023-01-26T06:34:29;-0.20;99.90
20068;DHT22;10194;50.824;7.134;2023-01-26T06:36:55;-0.20;99.90
20068;DHT22;10194;50.824;7.134;2023-01-26T06:39:21;-0.30;99.90
20068;DHT22;10194;50.824;7.134;2023-01-26T06:41:46;-0.20;99.90
20068;DHT22;10194;50.824;7.134;2023-01-26T06:44:12;-0.20;99.90
20068;DHT22;10194;50.824;7.134;2023-01-26T06:46:38;-0.20;99.90
20068;DHT22;10194;50.824;7.134;2023-01-26T06:49:04;-0.20;99.90
20068;DHT22;10194;50.824;7.134;2023-01-26T06:54:09;-0.20;99.90
20068;DHT22;10194;50.824;7.134;2023-01-26T06:56:36;-0.20;99.90
20068;DHT22;10194;50.824;7.134;2023-01-26T06:59:03;-0.30;99.90
20068;DHT22;10194;50.824;7.134;2023-01-26T07:01:35;-0.30;99.90
20068;DHT22;10194;50.824;7.134;2023-01-26T07:04:02;-0.30;99.90
20068;DHT22;10194;50.824;7.134;2023-01-26T07:06:28;-0.30;99.90
20068;DHT22;10194;50.824;7.134;2023-01-26T07:08:54;-0.30;99.90
20068;DHT22;10194;50.824;7.134;2023-01-26T07:11:20;-0.20;99.90
20068;DHT22;10194;50.824;7.134;2023-01-26T07:13:46;-0.20;99.90
20068;DHT22;10194;50.824;7.134;2023-01-26T07:16:14;-0.30;99.90
20068;DHT22;10194;50.824;7.134;2023-01-26T07:18:40;-0.30;99.90
20068;DHT22;10194;50.824;7.134;2023-01-26T07:21:13;-0.30;99.90
20068;DHT22;10194;50.824;7.134;2023-01-26T07:23:40;-0.30;99.90
20068;DHT22;10194;50.824;7.134;2023-01-26T07:26:06;-0.30;99.90
20068;DHT22;10194;50.824;7.134;2023-01-26T07:28:33;-0.30;99.90
20068;DHT22;10194;50.824;7.134;2023-01-26T07:31:00;-0.30;99.90
20068;DHT22;10194;50.824;7.134;2023-01-26T07:33:28;-0.30;99.90
20068;DHT22;10194;50.824;7.134;2023-01-26T07:35:54;-0.30;99.90
20068;DHT22;10194;50.824;7.134;2023-01-26T07:38:21;-0.30;99.90
20068;DHT22;10194;50.824;7.134;2023-01-26T07:40:47;-0.20;99.90
20068;DHT22;10194;50.824;7.134;2023-01-26T07:43:14;-0.20;99.90
20068;DHT22;10194;50.824;7.134;2023-01-26T07:45:48;-0.10;99.90
20068;DHT22;10194;50.824;7.134;2023-01-26T07:48:22;-0.10;99.90
20068;DHT22;10194;50.824;7.134;2023-01-26T07:50:48;0.00;99.90
20068;DHT22;10194;50.824;7.134;2023-01-26T07:53:16;0.00;99.90
20068;DHT22;10194;50.824;7.134;2023-01-26T07:55:47;0.00;99.90
20068;DHT22;10194;50.824;7.134;2023-01-26T07:58:13;0.00;99.90
20068;DHT22;10194;50.824;7.134;2023-01-26T08:00:39;0.10;99.90
20068;DHT22;10194;50.824;7.134;2023-01-26T08:03:05;0.10;99.90
20068;DHT22;10194;50.824;7.134;2023-01-26T08:05:32;0.10;99.90
20068;DHT22;10194;50.824;7.134;2023-01-26T08:08:01;0.10;99.90
20068;DHT22;10194;50.824;7.134;2023-01-26T08:10:27;0.20;99.90
20068;DHT22;10194;50.824;7.134;2023-01-26T08:12:57;0.20;99.90
20068;DHT22;10194;50.824;7.134;2023-01-26T08:15:25;0.30;99.90
20068;DHT22;10194;50.824;7.134;2023-01-26T08:17:53;0.30;99.90
20068;DHT22;10194;50.824;7.134;2023-01-26T08:20:20;0.30;99.90
20068;DHT22;10194;50.824;7.134;2023-01-26T08:22:46;0.30;99.90
20068;DHT22;10194;50.824;7.134;2023-01-26T08:25:12;0.30;99.90
20068;DHT22;10194;50.824;7.134;2023-01-26T08:27:38;0.30;99.90
20068;DHT22;10194;50.824;7.134;2023-01-26T08:30:04;0.30;99.90
20068;DHT22;10194;50.824;7.134;2023-01-26T08:32:31;0.30;99.90
20068;DHT22;10194;50.824;7.134;2023-01-26T08:34:56;0.30;99.90
20068;DHT22;10194;50.824;7.134;2023-01-26T08:37:22;0.30;99.90
20068;DHT22;10194;50.824;7.134;2023-01-26T08:39:48;0.20;99.90
20068;DHT22;10194;50.824;7.134;2023-01-26T08:42:13;0.30;99.90
20068;DHT22;10194;50.824;7.134;2023-01-26T08:44:39;0.40;99.90
20068;DHT22;10194;50.824;7.134;2023-01-26T08:47:05;0.30;99.90
20068;DHT22;10194;50.824;7.134;2023-01-26T08:49:31;0.30;99.90
20068;DHT22;10194;50.824;7.134;2023-01-26T08:51:56;0.30;99.90
20068;DHT22;10194;50.824;7.134;2023-01-26T08:54:22;0.20;99.90
20068;DHT22;10194;50.824;7.134;2023-01-26T08:56:48;0.30;99.90
20068;DHT22;10194;50.824;7.134;2023-01-26T08:59:14;0.30;99.90
20068;DHT22;10194;50.824;7.134;2023-01-26T09:01:39;0.30;99.90
20068;DHT22;10194;50.824;7.134;2023-01-26T09:04:05;0.30;99.90
20068;DHT22;10194;50.824;7.134;2023-01-26T09:06:31;0.30;99.90
20068;DHT22;10194;50.824;7.134;2023-01-26T09:08:58;0.30;99.90
20068;DHT22;10194;50.824;7.134;2023-01-26T09:11:24;0.30;99.90
20068;DHT22;10194;50.824;7.134;2023-01-26T09:13:50;0.30;99.90
20068;DHT22;10194;50.824;7.134;2023-01-26T09:16:23;0.40;99.90
20068;DHT22;10194;50.824;7.134;2023-01-26T09:18:53;0.40;99.90
20068;DHT22;10194;50.824;7.134;2023-01-26T09:21:19;0.40;99.90
20068;DHT22;10194;50.824;7.134;2023-01-26T09:23:45;0.40;99.90
20068;DHT22;10194;50.824;7.134;2023-01-26T09:26:11;0.40;99.90
20068;DHT22;10194;50.824;7.134;2023-01-26T09:28:37;0.50;99.90
20068;DHT22;10194;50.824;7.134;2023-01-26T09:31:04;0.50;99.90
20068;DHT22;10194;50.824;7.134;2023-01-26T09:33:32;0.60;99.90
20068;DHT22;10194;50.824;7.134;2023-01-26T09:36:08;0.60;99.90
20068;DHT22;10194;50.824;7.134;2023-01-26T09:38:35;0.60;99.90
20068;DHT22;10194;50.824;7.134;2023-01-26T09:43:54;0.70;99.90
20068;DHT22;10194;50.824;7.134;2023-01-26T09:49:35;0.80;99.90
20068;DHT22;10194;50.824;7.134;2023-01-26T09:52:31;0.70;99.90
20068;DHT22;10194;50.824;7.134;2023-01-26T09:55:00;0.80;99.90
20068;DHT22;10194;50.824;7.134;2023-01-26T09:57:42;0.70;99.90
20068;DHT22;10194;50.824;7.134;2023-01-26T10:00:27;0.80;99.90
20068;DHT22;10194;50.824;7.134;2023-01-26T10:03:35;0.80;99.90
20068;DHT22;10194;50.824;7.134;2023-01-26T10:06:26;0.90;99.90
20068;DHT22;10194;50.824;7.134;2023-01-26T10:08:57;1.00;99.90
20068;DHT22;10194;50.824;7.134;2023-01-26T10:11:37;1.00;99.90
20068;DHT22;10194;50.824;7.134;2023-01-26T10:16:38;1.00;99.90
20068;DHT22;10194;50.824;7.134;2023-01-26T10:22:10;1.00;99.90
20068;DHT22;10194;50.824;7.134;2023-01-26T10:24:40;1.00;99.90
20068;DHT22;10194;50.824;7.134;2023-01-26T10:27:10;1.00;99.90
20068;DHT22;10194;50.824;7.134;2023-01-26T10:29:38;1.00;99.90
20068;DHT22;10194;50.824;7.134;2023-01-26T10:32:04;1.00;99.90
20068;DHT22;10194;50.824;7.134;2023-01-26T10:34:31;1.00;99.90
20068;DHT22;10194;50.824;7.134;2023-01-26T10:37:11;1.10;99.90
20068;DHT22;10194;50.824;7.134;2023-01-26T10:42:27;1.10;99.90
20068;DHT22;10194;50.824;7.134;2023-01-26T10:44:58;1.10;99.90
20068;DHT22;10194;50.824;7.134;2023-01-26T10:47:27;1.20;99.90
20068;DHT22;10194;50.824;7.134;2023-01-26T10:50:23;1.20;99.90
20068;DHT22;10194;50.824;7.134;2023-01-26T10:52:57;1.20;99.90
20068;DHT22;10194;50.824;7.134;2023-01-26T10:55:25;1.20;99.90
20068;DHT22;10194;50.824;7.134;2023-01-26T10:57:51;1.20;99.90
20068;DHT22;10194;50.824;7.134;2023-01-26T11:00:30;1.20;99.90
20068;DHT22;10194;50.824;7.134;2023-01-26T11:05:38;1.20;99.90
20068;DHT22;10194;50.824;7.134;2023-01-26T11:08:31;1.30;99.90
20068;DHT22;10194;50.824;7.134;2023-01-26T11:11:01;1.30;99.90
20068;DHT22;10194;50.824;7.134;2023-01-26T11:13:28;1.30;99.90
20068;DHT22;10194;50.824;7.134;2023-01-26T11:16:10;1.40;99.90
20068;DHT22;10194;50.824;7.134;2023-01-26T11:21:26;1.30;99.90
20068;DHT22;10194;50.824;7.134;2023-01-26T11:24:14;1.30;99.90
20068;DHT22;10194;50.824;7.134;2023-01-26T11:27:11;1.30;99.90
20068;DHT22;10194;50.824;7.134;2023-01-26T11:38:36;1.50;99.90
20068;DHT22;10194;50.824;7.134;2023-01-26T11:44:24;1.60;99.90
20068;DHT22;10194;50.824;7.134;2023-01-26T11:55:59;1.50;99.90
20068;DHT22;10194;50.824;7.134;2023-01-26T11:59:21;1.40;99.90
20068;DHT22;10194;50.824;7.134;2023-01-26T12:01:49;1.40;99.90
20068;DHT22;10194;50.824;7.134;2023-01-26T12:04:37;1.40;99.90
20068;DHT22;10194;50.824;7.134;2023-01-26T12:07:14;1.30;99.90
20068;DHT22;10194;50.824;7.134;2023-01-26T12:09:46;1.40;99.90
20068;DHT22;10194;50.824;7.134;2023-01-26T12:15:10;1.40;99.90
20068;DHT22;10194;50.824;7.134;2023-01-26T12:18:04;1.40;99.90
20068;DHT22;10194;50.824;7.134;2023-01-26T12:20:49;1.40;99.90
20068;DHT22;10194;50.824;7.134;2023-01-26T12:23:30;1.50;99.90
20068;DHT22;10194;50.824;7.134;2023-01-26T12:26:07;1.50;99.90
20068;DHT22;10194;50.824;7.134;2023-01-26T12:29:23;1.50;99.90
20068;DHT22;10194;50.824;7.134;2023-01-26T12:34:32;1.40;99.90
20068;DHT22;10194;50.824;7.134;2023-01-26T12:40:21;1.40;99.90
20068;DHT22;10194;50.824;7.134;2023-01-26T12:43:06;1.40;99.90
20068;DHT22;10194;50.824;7.134;2023-01-26T12:45:59;1.50;99.90
20068;DHT22;10194;50.824;7.134;2023-01-26T12:51:58;1.40;99.90
20068;DHT22;10194;50.824;7.134;2023-01-26T12:54:44;1.50;99.90
20068;DHT22;10194;50.824;7.134;2023-01-26T12:57:17;1.50;99.90
20068;DHT22;10194;50.824;7.134;2023-01-26T12:59:45;1.50;99.90
20068;DHT22;10194;50.824;7.134;2023-01-26T13:02:35;1.50;99.90
20068;DHT22;10194;50.824;7.134;2023-01-26T13:05:03;1.50;99.90
20068;DHT22;10194;50.824;7.134;2023-01-26T13:07:39;1.50;99.90
20068;DHT22;10194;50.824;7.134;2023-01-26T13:10:09;1.50;99.90
20068;DHT22;10194;50.824;7.134;2023-01-26T13:15:18;1.50;99.90
20068;DHT22;10194;50.824;7.134;2023-01-26T13:26:12;1.40;99.90
20068;DHT22;10194;50.824;7.134;2023-01-26T13:28:40;1.40;99.90
20068;DHT22;10194;50.824;7.134;2023-01-26T13:31:08;1.40;99.90
20068;DHT22;10194;50.824;7.134;2023-01-26T13:33:34;1.40;99.90
20068;DHT22;10194;50.824;7.134;2023-01-26T13:36:13;1.40;99.90
20068;DHT22;10194;50.824;7.134;2023-01-26T13:38:44;1.40;99.90
20068;DHT22;10194;50.824;7.134;2023-01-26T13:41:18;1.40;99.90
20068;DHT22;10194;50.824;7.134;2023-01-26T13:43:52;1.40;99.90
20068;DHT22;10194;50.824;7.134;2023-01-26T13:46:43;1.30;99.90
20068;DHT22;10194;50.824;7.134;2023-01-26T13:49:40;1.40;99.90
20068;DHT22;10194;50.824;7.134;2023-01-26T13:52:26;1.40;99.90
20068;DHT22;10194;50.824;7.134;2023-01-26T13:54:54;1.50;99.90
20068;DHT22;10194;50.824;7.134;2023-01-26T13:57:26;1.50;99.90
20068;DHT22;10194;50.824;7.134;2023-01-26T13:59:57;1.50;99.90
20068;DHT22;10194;50.824;7.134;2023-01-26T14:02:37;1.50;99.90
20068;DHT22;10194;50.824;7.134;2023-01-26T14:05:03;1.50;99.90
20068;DHT22;10194;50.824;7.134;2023-01-26T14:07:37;1.50;99.90
20068;DHT22;10194;50.824;7.134;2023-01-26T14:10:05;1.50;99.90
20068;DHT22;10194;50.824;7.134;2023-01-26T14:12:51;1.40;99.90
20068;DHT22;10194;50.824;7.134;2023-01-26T14:15:27;1.40;99.90
20068;DHT22;10194;50.824;7.134;2023-01-26T14:17:59;1.40;99.90
20068;DHT22;10194;50.824;7.134;2023-01-26T14:20:35;1.50;99.90
20068;DHT22;10194;50.824;7.134;2023-01-26T14:23:12;1.50;99.90
20068;DHT22;10194;50.824;7.134;2023-01-26T14:26:02;1.50;99.90
20068;DHT22;10194;50.824;7.134;2023-01-26T14:28:40;1.50;99.90
20068;DHT22;10194;50.824;7.134;2023-01-26T14:31:19;1.50;99.90
20068;DHT22;10194;50.824;7.134;2023-01-26T14:33:48;1.50;99.90
20068;DHT22;10194;50.824;7.134;2023-01-26T14:36:19;1.50;99.90
20068;DHT22;10194;50.824;7.134;2023-01-26T14:38:47;1.50;99.90
20068;DHT22;10194;50.824;7.134;2023-01-26T14:41:19;1.50;99.90
20068;DHT22;10194;50.824;7.134;2023-01-26T14:43:49;1.50;99.90
20068;DHT22;10194;50.824;7.134;2023-01-26T14:46:17;1.50;99.90
20068;DHT22;10194;50.824;7.134;2023-01-26T14:49:01;1.60;99.90
20068;DHT22;10194;50.824;7.134;2023-01-26T14:51:32;1.60;99.90
20068;DHT22;10194;50.824;7.134;2023-01-26T14:54:02;1.50;99.90
20068;DHT22;10194;50.824;7.134;2023-01-26T14:56:36;1.60;99.90
20068;DHT22;10194;50.824;7.134;2023-01-26T14:59:04;1.60;99.90
20068;DHT22;10194;50.824;7.134;2023-01-26T15:01:31;1.60;99.90
20068;DHT22;10194;50.824;7.134;2023-01-26T15:06:45;1.60;99.90
20068;DHT22;10194;50.824;7.134;2023-01-26T15:09:27;1.60;99.90
20068;DHT22;10194;50.824;7.134;2023-01-26T15:11:55;1.70;99.90
20068;DHT22;10194;50.824;7.134;2023-01-26T15:17:41;1.70;99.90
20068;DHT22;10194;50.824;7.134;2023-01-26T15:22:56;1.70;99.90
20068;DHT22;10194;50.824;7.134;2023-01-26T15:25:26;1.70;99.90
20068;DHT22;10194;50.824;7.134;2023-01-26T15:27:59;1.80;99.90
20068;DHT22;10194;50.824;7.134;2023-01-26T15:30:35;1.70;99.90
20068;DHT22;10194;50.824;7.134;2023-01-26T15:33:02;1.70;99.90
20068;DHT22;10194;50.824;7.134;2023-01-26T15:35:32;1.70;99.90
20068;DHT22;10194;50.824;7.134;2023-01-26T15:38:03;1.80;99.90
20068;DHT22;10194;50.824;7.134;2023-01-26T15:40:31;1.80;99.90
20068;DHT22;10194;50.824;7.134;2023-01-26T15:43:13;1.80;99.90
20068;DHT22;10194;50.824;7.134;2023-01-26T15:45:53;1.80;99.90
20068;DHT22;10194;50.824;7.134;2023-01-26T15:48:21;1.80;99.90
20068;DHT22;10194;50.824;7.134;2023-01-26T15:50:48;1.80;99.90
20068;DHT22;10194;50.824;7.134;2023-01-26T15:53:17;1.80;99.90
20068;DHT22;10194;50.824;7.134;2023-01-26T15:55:48;1.80;99.90
20068;DHT22;10194;50.824;7.134;2023-01-26T15:58:18;1.80;99.90
20068;DHT22;10194;50.824;7.134;2023-01-26T16:00:44;1.90;99.90
20068;DHT22;10194;50.824;7.134;2023-01-26T16:03:16;1.90;99.90
20068;DHT22;10194;50.824;7.134;2023-01-26T16:05:44;1.90;99.90
20068;DHT22;10194;50.824;7.134;2023-01-26T16:08:15;1.90;99.90
20068;DHT22;10194;50.824;7.134;2023-01-26T16:10:41;1.90;99.90
20068;DHT22;10194;50.824;7.134;2023-01-26T16:13:18;1.90;99.90
20068;DHT22;10194;50.824;7.134;2023-01-26T16:15:49;1.90;99.90
20068;DHT22;10194;50.824;7.134;2023-01-26T16:18:16;1.90;99.90
20068;DHT22;10194;50.824;7.134;2023-01-26T16:20:46;1.90;99.90
20068;DHT22;10194;50.824;7.134;2023-01-26T16:23:21;1.80;99.90
20068;DHT22;10194;50.824;7.134;2023-01-26T16:25:50;1.90;99.90
20068;DHT22;10194;50.824;7.134;2023-01-26T16:28:16;1.90;99.90
20068;DHT22;10194;50.824;7.134;2023-01-26T16:30:44;1.90;99.90
20068;DHT22;10194;50.824;7.134;2023-01-26T16:33:15;1.90;99.90
20068;DHT22;10194;50.824;7.134;2023-01-26T16:35:45;1.90;99.90
20068;DHT22;10194;50.824;7.134;2023-01-26T16:38:12;2.00;99.90
20068;DHT22;10194;50.824;7.134;2023-01-26T16:40:39;1.90;99.90
20068;DHT22;10194;50.824;7.134;2023-01-26T16:43:19;2.00;99.90
20068;DHT22;10194;50.824;7.134;2023-01-26T16:45:47;2.00;99.90
20068;DHT22;10194;50.824;7.134;2023-01-26T16:48:15;2.10;99.90
20068;DHT22;10194;50.824;7.134;2023-01-26T16:50:42;2.10;99.90
20068;DHT22;10194;50.824;7.134;2023-01-26T16:53:25;2.10;99.90
20068;DHT22;10194;50.824;7.134;2023-01-26T16:55:52;2.10;99.90
20068;DHT22;10194;50.824;7.134;2023-01-26T16:58:19;2.00;99.90
20068;DHT22;10194;50.824;7.134;2023-01-26T17:00:46;2.10;99.90
20068;DHT22;10194;50.824;7.134;2023-01-26T17:03:12;2.10;99.90
20068;DHT22;10194;50.824;7.134;2023-01-26T17:05:38;2.10;99.90
20068;DHT22;10194;50.824;7.134;2023-01-26T17:08:05;2.10;99.90
20068;DHT22;10194;50.824;7.134;2023-01-26T17:10:32;2.10;99.90
20068;DHT22;10194;50.824;7.134;2023-01-26T17:12:58;2.10;99.90
20068;DHT22;10194;50.824;7.134;2023-01-26T17:15:27;2.10;99.90
20068;DHT22;10194;50.824;7.134;2023-01-26T17:17:54;2.20;99.90
20068;DHT22;10194;50.824;7.134;2023-01-26T17:20:20;2.20;99.90
20068;DHT22;10194;50.824;7.134;2023-01-26T17:22:47;2.20;99.90
20068;DHT22;10194;50.824;7.134;2023-01-26T17:25:14;2.30;99.90